createdAt,value
2018-10-07T00:00:22.802Z,35.90
2018-10-07T00:02:51.144Z,36.00
2018-10-07T00:05:19.422Z,36.00
2018-10-07T00:07:47.761Z,36.10
2018-10-07T00:10:16.145Z,36.30
2018-10-07T00:12:44.425Z,36.20
2018-10-07T00:15:12.752Z,36.20
2018-10-07T00:17:41.189Z,36.10
2018-10-07T00:20:09.635Z,36.10
2018-10-07T00:22:38.377Z,36.30
2018-10-07T00:25:07.032Z,36.20
2018-10-07T00:27:35.375Z,36.30
2018-10-07T00:30:03.773Z,36.30
2018-10-07T00:32:32.200Z,36.40
2018-10-07T00:35:00.610Z,36.50
2018-10-07T00:37:28.988Z,36.30
2018-10-07T00:39:57.308Z,36.40
2018-10-07T00:42:25.640Z,36.30
2018-10-07T00:44:54.004Z,36.30
2018-10-07T00:47:22.480Z,36.40
2018-10-07T00:49:50.835Z,36.30
2018-10-07T00:52:19.368Z,36.40
2018-10-07T00:54:47.715Z,36.50
2018-10-07T00:57:16.168Z,36.50
2018-10-07T00:59:44.656Z,36.40
2018-10-07T01:02:13.149Z,36.50
2018-10-07T01:04:41.455Z,36.50
2018-10-07T01:07:09.861Z,36.50
2018-10-07T01:09:38.338Z,36.50
2018-10-07T01:12:06.875Z,36.50
2018-10-07T01:14:35.193Z,36.40
2018-10-07T01:17:03.648Z,36.50
2018-10-07T01:19:32.049Z,36.60
2018-10-07T01:22:00.505Z,36.50
2018-10-07T01:24:28.882Z,36.70
2018-10-07T01:26:57.260Z,37.30
2018-10-07T01:29:25.561Z,36.80
2018-10-07T01:31:53.852Z,36.80
2018-10-07T01:34:22.191Z,36.60
2018-10-07T01:36:50.499Z,36.60
2018-10-07T01:39:18.882Z,36.80
2018-10-07T01:41:47.203Z,37.30
2018-10-07T01:44:15.502Z,36.70
2018-10-07T01:46:43.811Z,36.60
2018-10-07T01:49:12.158Z,36.60
2018-10-07T01:51:40.544Z,36.60
2018-10-07T01:54:08.887Z,36.60
2018-10-07T01:56:37.179Z,36.70
2018-10-07T01:59:05.648Z,36.80
2018-10-07T02:01:34.104Z,36.80
2018-10-07T02:04:02.452Z,36.70
2018-10-07T02:06:30.731Z,36.70
2018-10-07T02:08:59.130Z,36.80
2018-10-07T02:11:27.428Z,36.80
2018-10-07T02:13:55.767Z,36.80
2018-10-07T02:16:24.187Z,36.80
2018-10-07T02:18:52.492Z,36.70
2018-10-07T02:21:20.888Z,36.80
2018-10-07T02:23:49.285Z,37.00
2018-10-07T02:26:17.575Z,36.90
2018-10-07T02:28:45.935Z,36.90
2018-10-07T02:31:14.211Z,36.90
2018-10-07T02:33:42.631Z,36.90
2018-10-07T02:36:11.046Z,37.00
2018-10-07T02:38:39.365Z,37.00
2018-10-07T02:41:07.783Z,36.90
2018-10-07T02:43:36.153Z,36.90
2018-10-07T02:46:04.455Z,37.00
2018-10-07T02:48:32.763Z,37.00
2018-10-07T02:51:01.115Z,37.10
2018-10-07T02:53:29.555Z,37.20
2018-10-07T02:55:57.812Z,37.10
2018-10-07T02:58:27.100Z,37.10
2018-10-07T03:00:55.454Z,37.20
2018-10-07T03:03:23.747Z,37.10
2018-10-07T03:05:52.051Z,37.10
2018-10-07T03:08:20.326Z,37.20
2018-10-07T03:10:48.619Z,37.10
2018-10-07T03:13:16.913Z,37.20
2018-10-07T03:15:45.336Z,37.20
2018-10-07T03:18:13.639Z,37.30
2018-10-07T03:20:41.977Z,37.20
2018-10-07T03:23:10.303Z,37.30
2018-10-07T03:25:38.706Z,37.40
2018-10-07T03:28:07.198Z,37.40
2018-10-07T03:30:35.612Z,37.30
2018-10-07T03:33:03.945Z,37.40
2018-10-07T03:35:32.362Z,37.30
2018-10-07T03:38:00.708Z,37.20
2018-10-07T03:40:29.130Z,37.50
2018-10-07T03:42:57.709Z,37.50
2018-10-07T03:45:26.131Z,37.60
2018-10-07T03:47:54.451Z,37.70
2018-10-07T03:50:22.837Z,37.50
2018-10-07T03:52:51.715Z,37.50
2018-10-07T03:55:20.095Z,37.50
2018-10-07T03:57:48.543Z,37.50
2018-10-07T04:00:17.045Z,37.50
2018-10-07T04:02:45.431Z,37.50
2018-10-07T04:05:13.812Z,37.50
2018-10-07T04:07:42.143Z,37.60
2018-10-07T04:10:10.485Z,37.60
2018-10-07T04:12:38.843Z,37.60
2018-10-07T04:15:07.371Z,37.70
2018-10-07T04:17:35.704Z,37.60
2018-10-07T04:20:04.223Z,37.60
2018-10-07T04:22:32.575Z,38.20
2018-10-07T04:25:00.955Z,38.20
2018-10-07T04:27:29.330Z,37.60
2018-10-07T04:29:57.641Z,37.60
2018-10-07T04:32:25.943Z,37.60
2018-10-07T04:34:54.262Z,37.50
2018-10-07T04:37:22.594Z,37.50
2018-10-07T04:39:51.044Z,38.20
2018-10-07T04:42:19.303Z,37.50
2018-10-07T04:44:47.580Z,37.50
2018-10-07T04:47:15.945Z,37.50
2018-10-07T04:49:44.363Z,37.50
2018-10-07T04:52:12.716Z,37.50
2018-10-07T04:54:40.995Z,37.50
2018-10-07T04:57:09.372Z,37.60
2018-10-07T04:59:37.861Z,37.50
2018-10-07T05:02:06.508Z,37.60
2018-10-07T05:04:34.794Z,37.70
2018-10-07T05:07:03.135Z,37.70
2018-10-07T05:09:31.492Z,37.80
2018-10-07T05:12:01.604Z,37.70
2018-10-07T05:14:29.963Z,37.70
2018-10-07T05:16:58.408Z,37.70
2018-10-07T05:19:26.766Z,37.70
2018-10-07T05:21:55.170Z,37.80
2018-10-07T05:24:23.592Z,37.80
2018-10-07T05:26:51.977Z,37.80
2018-10-07T05:29:20.341Z,37.80
2018-10-07T05:31:48.731Z,37.90
2018-10-07T05:34:17.095Z,37.90
2018-10-07T05:36:45.515Z,37.90
2018-10-07T05:39:13.988Z,37.90
2018-10-07T05:41:42.562Z,38.50
2018-10-07T05:44:11.054Z,37.80
2018-10-07T05:46:39.508Z,37.90
2018-10-07T05:49:07.933Z,37.90
2018-10-07T05:51:36.276Z,37.90
2018-10-07T05:54:04.647Z,37.70
2018-10-07T05:56:32.968Z,37.80
2018-10-07T05:59:01.437Z,37.70
2018-10-07T06:01:34.463Z,37.70
2018-10-07T06:04:11.867Z,37.60
2018-10-07T06:06:40.282Z,37.60
2018-10-07T06:09:13.644Z,37.70
2018-10-07T06:11:42.119Z,38.30
2018-10-07T06:14:20.431Z,37.60
2018-10-07T06:16:48.824Z,37.50
2018-10-07T06:19:17.162Z,37.50
2018-10-07T06:21:45.551Z,37.50
2018-10-07T06:24:13.885Z,37.50
2018-10-07T06:26:42.267Z,37.60
2018-10-07T06:29:10.716Z,37.60
2018-10-07T06:31:39.121Z,37.50
2018-10-07T06:34:07.716Z,37.60
2018-10-07T06:36:36.080Z,37.60
2018-10-07T06:39:04.893Z,37.50
2018-10-07T06:41:33.406Z,37.50
2018-10-07T06:44:01.857Z,37.40
2018-10-07T06:46:30.338Z,37.40
2018-10-07T06:48:58.716Z,37.30
2018-10-07T06:51:27.100Z,37.20
2018-10-07T06:53:55.504Z,37.20
2018-10-07T06:56:23.875Z,37.40
2018-10-07T06:58:52.238Z,37.60
2018-10-07T07:01:20.568Z,36.80
2018-10-07T07:03:48.935Z,36.80
2018-10-07T07:06:17.277Z,36.80
2018-10-07T07:08:45.643Z,36.70
2018-10-07T07:11:14.054Z,36.60
2018-10-07T07:13:42.430Z,36.60
2018-10-07T07:16:10.984Z,36.30
2018-10-07T07:18:39.387Z,36.10
2018-10-07T07:21:07.876Z,35.90
2018-10-07T07:23:36.245Z,35.80
2018-10-07T07:26:04.531Z,35.60
2018-10-07T07:28:32.960Z,35.50
2018-10-07T07:31:01.416Z,35.30
2018-10-07T07:33:29.901Z,35.30
2018-10-07T07:35:58.233Z,35.20
2018-10-07T07:38:26.563Z,35.20
2018-10-07T07:40:54.924Z,35.10
2018-10-07T07:43:23.335Z,35.20
2018-10-07T07:45:51.652Z,35.00
2018-10-07T07:48:19.975Z,34.90
2018-10-07T07:50:48.268Z,34.80
2018-10-07T07:53:16.657Z,34.50
2018-10-07T07:55:45.016Z,34.40
2018-10-07T07:58:13.334Z,34.30
2018-10-07T08:00:41.667Z,34.10
2018-10-07T08:03:09.995Z,33.70
2018-10-07T08:05:38.587Z,33.50
2018-10-07T08:08:07.315Z,33.20
2018-10-07T08:10:35.754Z,32.90
2018-10-07T08:13:04.123Z,32.50
2018-10-07T08:15:32.460Z,32.20
2018-10-07T08:18:00.739Z,32.60
2018-10-07T08:20:29.291Z,31.60
2018-10-07T08:22:57.765Z,31.20
2018-10-07T08:25:26.119Z,30.80
2018-10-07T08:27:54.546Z,30.50
2018-10-07T08:30:23.133Z,30.00
2018-10-07T08:32:51.540Z,29.60
2018-10-07T08:35:20.011Z,29.30
2018-10-07T08:37:48.303Z,29.00
2018-10-07T08:40:16.763Z,28.70
2018-10-07T08:42:45.107Z,28.50
2018-10-07T08:45:13.501Z,28.10
2018-10-07T08:47:41.831Z,27.90
2018-10-07T08:50:10.357Z,27.60
2018-10-07T08:52:38.736Z,27.30
2018-10-07T08:55:07.189Z,27.30
2018-10-07T08:57:35.672Z,26.30
2018-10-07T09:00:04.080Z,26.00
2018-10-07T09:02:32.633Z,25.60
2018-10-07T09:05:01.016Z,25.20
2018-10-07T09:07:29.348Z,24.90
2018-10-07T09:09:57.858Z,24.80
2018-10-07T09:12:26.289Z,24.50
2018-10-07T09:14:54.820Z,24.40
2018-10-07T09:17:23.259Z,24.20
2018-10-07T09:19:51.705Z,23.90
2018-10-07T09:22:20.348Z,23.80
2018-10-07T09:24:48.819Z,23.60
2018-10-07T09:27:17.406Z,23.50
2018-10-07T09:29:46.040Z,23.20
2018-10-07T09:32:14.516Z,23.00
2018-10-07T09:34:42.991Z,22.80
2018-10-07T09:37:11.529Z,22.70
2018-10-07T09:39:39.892Z,22.70
2018-10-07T09:42:08.437Z,22.50
2018-10-07T09:44:36.984Z,22.40
2018-10-07T09:47:05.574Z,22.40
2018-10-07T09:49:34.144Z,22.30
2018-10-07T09:52:02.650Z,22.30
2018-10-07T09:54:31.091Z,22.60
2018-10-07T09:56:59.603Z,22.70
2018-10-07T09:59:28.004Z,22.80
2018-10-07T10:01:56.783Z,22.80
2018-10-07T10:04:25.284Z,23.10
2018-10-07T10:06:53.574Z,22.40
2018-10-07T10:09:21.974Z,22.30
2018-10-07T10:11:50.320Z,22.10
2018-10-07T10:14:18.820Z,21.90
2018-10-07T10:16:53.979Z,21.70
2018-10-07T10:19:31.711Z,21.40
2018-10-07T10:22:08.531Z,21.20
2018-10-07T10:24:53.061Z,21.10
2018-10-07T10:27:56.467Z,20.90
2018-10-07T10:32:44.004Z,20.80
2018-10-07T10:36:17.944Z,20.70
2018-10-07T10:38:53.651Z,20.60
2018-10-07T10:41:34.351Z,20.70
2018-10-07T10:45:08.049Z,20.60
2018-10-07T10:47:42.717Z,20.40
2018-10-07T10:50:53.916Z,20.30
2018-10-07T10:53:57.539Z,20.20
2018-10-07T10:56:29.759Z,20.10
2018-10-07T11:01:13.296Z,20.00
2018-10-07T11:04:23.431Z,20.20
2018-10-07T11:06:59.827Z,20.80
2018-10-07T11:10:38.983Z,21.30
2018-10-07T11:13:21.200Z,21.80
2018-10-07T11:16:05.321Z,22.20
2018-10-07T11:18:48.068Z,22.30
2018-10-07T11:21:27.215Z,22.20
2018-10-07T11:24:09.398Z,22.10
2018-10-07T11:26:45.348Z,21.90
2018-10-07T11:29:25.241Z,21.60
2018-10-07T11:34:11.832Z,21.30
2018-10-07T11:37:25.467Z,21.30
2018-10-07T11:40:05.240Z,20.90
2018-10-07T11:43:14.504Z,20.90
2018-10-07T11:45:47.792Z,20.80
2018-10-07T11:48:26.701Z,20.70
2018-10-07T11:51:36.530Z,20.70
2018-10-07T11:54:10.482Z,20.70
2018-10-07T11:56:39.377Z,20.80
2018-10-07T11:59:07.979Z,20.70
2018-10-07T12:01:36.506Z,20.70
2018-10-07T12:04:05.117Z,20.70
2018-10-07T12:06:33.443Z,20.70
2018-10-07T12:09:01.886Z,20.80
2018-10-07T12:11:30.367Z,20.90
2018-10-07T12:13:58.710Z,21.00
2018-10-07T12:16:27.130Z,21.40
2018-10-07T12:18:55.619Z,21.10
2018-10-07T12:21:24.511Z,21.20
2018-10-07T12:23:54.287Z,21.20
2018-10-07T12:26:22.900Z,21.10
2018-10-07T12:28:51.442Z,20.90
2018-10-07T12:31:20.368Z,20.50
2018-10-07T12:33:48.782Z,20.50
2018-10-07T12:36:17.369Z,20.40
2018-10-07T12:38:45.893Z,20.10
2018-10-07T12:41:14.482Z,20.00
2018-10-07T12:43:42.912Z,19.70
2018-10-07T12:46:11.490Z,19.50
2018-10-07T12:48:40.554Z,19.20
2018-10-07T12:51:09.264Z,19.00
2018-10-07T12:53:37.824Z,18.80
2018-10-07T12:56:06.755Z,18.60
2018-10-07T12:58:35.103Z,18.40
2018-10-07T13:01:03.489Z,18.40
2018-10-07T13:03:32.305Z,18.10
2018-10-07T13:06:00.709Z,18.10
2018-10-07T13:08:29.059Z,18.10
2018-10-07T13:10:57.660Z,18.40
2018-10-07T13:13:26.755Z,18.40
2018-10-07T13:15:55.043Z,18.60
2018-10-07T13:18:23.480Z,18.80
2018-10-07T13:20:53.440Z,18.80
2018-10-07T13:23:22.244Z,18.80
2018-10-07T13:25:50.531Z,18.90
2018-10-07T13:28:18.855Z,18.90
2018-10-07T13:30:48.580Z,18.90
2018-10-07T13:33:16.973Z,19.00
2018-10-07T13:35:45.730Z,19.10
2018-10-07T13:38:15.193Z,19.00
2018-10-07T13:40:43.705Z,19.10
2018-10-07T13:43:12.195Z,19.20
2018-10-07T13:45:40.691Z,19.20
2018-10-07T13:48:09.133Z,19.20
2018-10-07T13:50:37.761Z,19.30
2018-10-07T13:53:06.307Z,19.40
2018-10-07T13:55:34.992Z,19.50
2018-10-07T13:58:03.716Z,19.50
2018-10-07T14:00:32.055Z,19.60
2018-10-07T14:03:00.556Z,19.60
2018-10-07T14:05:28.998Z,19.70
2018-10-07T14:07:57.396Z,19.60
2018-10-07T14:10:25.753Z,19.60
2018-10-07T14:12:54.225Z,19.60
2018-10-07T14:15:22.710Z,19.70
2018-10-07T14:17:50.959Z,19.70
2018-10-07T14:20:19.545Z,19.80
2018-10-07T14:22:47.988Z,19.90
2018-10-07T14:25:16.409Z,20.00
2018-10-07T14:27:44.927Z,20.20
2018-10-07T14:30:13.348Z,20.30
2018-10-07T14:32:41.899Z,20.60
2018-10-07T14:35:10.321Z,21.00
2018-10-07T14:37:38.783Z,21.40
2018-10-07T14:40:07.148Z,21.80
2018-10-07T14:42:35.576Z,22.00
2018-10-07T14:45:04.033Z,22.20
2018-10-07T14:47:32.470Z,22.40
2018-10-07T14:50:00.880Z,22.60
2018-10-07T14:52:29.307Z,22.80
2018-10-07T14:54:57.754Z,23.00
2018-10-07T14:57:26.070Z,23.30
2018-10-07T14:59:54.429Z,23.40
2018-10-07T15:02:22.855Z,23.30
2018-10-07T15:04:51.237Z,23.60
2018-10-07T15:07:19.579Z,24.00
2018-10-07T15:09:47.996Z,24.50
2018-10-07T15:12:16.489Z,25.10
2018-10-07T15:14:45.000Z,25.70
2018-10-07T15:17:13.370Z,26.30
2018-10-07T15:19:41.789Z,27.00
2018-10-07T15:22:10.349Z,27.50
2018-10-07T15:24:38.714Z,28.00
2018-10-07T15:27:11.031Z,28.40
2018-10-07T15:29:39.445Z,28.90
2018-10-07T15:32:08.044Z,29.20
2018-10-07T15:34:36.426Z,29.70
2018-10-07T15:37:04.799Z,30.20
2018-10-07T15:39:33.233Z,30.80
2018-10-07T15:42:01.820Z,31.20
2018-10-07T15:44:30.275Z,31.60
2018-10-07T15:46:58.864Z,32.10
2018-10-07T15:49:27.300Z,32.40
2018-10-07T15:51:55.715Z,32.60
2018-10-07T15:54:24.075Z,32.90
2018-10-07T15:56:52.562Z,33.00
2018-10-07T15:59:20.756Z,33.50
2018-10-07T16:01:49.194Z,33.70
2018-10-07T16:04:17.567Z,34.00
2018-10-07T16:06:45.976Z,34.30
2018-10-07T16:09:14.307Z,34.50
2018-10-07T16:11:42.731Z,34.90
2018-10-07T16:14:11.182Z,35.00
2018-10-07T16:16:39.769Z,35.20
2018-10-07T16:19:08.234Z,35.70
2018-10-07T16:21:36.736Z,35.90
2018-10-07T16:24:05.059Z,36.10
2018-10-07T16:26:33.443Z,36.30
2018-10-07T16:29:01.770Z,36.20
2018-10-07T16:31:30.088Z,36.70
2018-10-07T16:33:58.566Z,37.00
2018-10-07T16:36:27.086Z,36.90
2018-10-07T16:38:55.447Z,37.50
2018-10-07T16:41:23.767Z,37.30
2018-10-07T16:43:52.283Z,37.50
2018-10-07T16:46:20.665Z,37.30
2018-10-07T16:48:49.039Z,37.90
2018-10-07T16:51:17.384Z,37.80
2018-10-07T16:53:45.821Z,37.80
2018-10-07T16:56:14.121Z,38.30
2018-10-07T16:58:42.780Z,38.10
2018-10-07T17:01:11.208Z,38.40
2018-10-07T17:03:39.700Z,38.30
2018-10-07T17:06:08.127Z,38.70
2018-10-07T17:08:36.513Z,38.90
2018-10-07T17:11:05.483Z,39.50
2018-10-07T17:13:33.771Z,39.10
2018-10-07T17:16:02.223Z,39.10
2018-10-07T17:18:30.614Z,39.10
2018-10-07T17:20:59.144Z,39.00
2018-10-07T17:23:27.723Z,39.20
2018-10-07T17:25:56.147Z,38.90
2018-10-07T17:28:24.632Z,38.70
2018-10-07T17:30:53.092Z,39.30
2018-10-07T17:33:21.559Z,39.20
2018-10-07T17:35:50.091Z,39.30
2018-10-07T17:38:18.530Z,39.40
2018-10-07T17:40:47.068Z,38.90
2018-10-07T17:43:15.439Z,39.40
2018-10-07T17:45:43.927Z,39.30
2018-10-07T17:48:12.354Z,39.70
2018-10-07T17:50:40.789Z,39.40
2018-10-07T17:53:09.203Z,39.40
2018-10-07T17:55:37.875Z,40.00
2018-10-07T17:58:06.458Z,39.80
2018-10-07T18:00:34.942Z,40.20
2018-10-07T18:03:03.406Z,40.00
2018-10-07T18:05:31.750Z,39.90
2018-10-07T18:08:00.460Z,40.00
2018-10-07T18:10:28.926Z,40.10
2018-10-07T18:12:57.504Z,40.00
2018-10-07T18:15:25.923Z,40.50
2018-10-07T18:17:54.339Z,40.30
2018-10-07T18:20:22.910Z,40.10
2018-10-07T18:22:51.258Z,40.50
2018-10-07T18:25:19.601Z,40.10
2018-10-07T18:27:47.936Z,40.20
2018-10-07T18:30:16.344Z,40.60
2018-10-07T18:32:44.756Z,40.40
2018-10-07T18:35:13.360Z,40.80
2018-10-07T18:37:41.657Z,40.80
2018-10-07T18:40:10.165Z,41.00
2018-10-07T18:42:38.487Z,40.60
2018-10-07T18:45:06.886Z,40.70
2018-10-07T18:47:35.334Z,41.00
2018-10-07T18:50:03.823Z,41.00
2018-10-07T18:52:32.140Z,40.50
2018-10-07T18:55:00.507Z,40.90
2018-10-07T18:57:29.726Z,41.00
2018-10-07T18:59:58.088Z,40.80
2018-10-07T19:02:26.540Z,41.00
2018-10-07T19:04:54.869Z,41.10
2018-10-07T19:07:23.123Z,41.30
2018-10-07T19:09:51.503Z,41.20
2018-10-07T19:12:19.864Z,41.20
2018-10-07T19:14:48.198Z,41.30
2018-10-07T19:17:16.476Z,41.40
2018-10-07T19:19:44.777Z,41.50
2018-10-07T19:22:13.197Z,41.60
2018-10-07T19:24:41.537Z,41.70
2018-10-07T19:27:10.005Z,41.50
2018-10-07T19:29:38.400Z,41.20
2018-10-07T19:32:06.810Z,41.60
2018-10-07T19:34:35.234Z,42.20
2018-10-07T19:37:03.694Z,41.80
2018-10-07T19:39:32.059Z,41.90
2018-10-07T19:42:00.399Z,42.20
2018-10-07T19:44:28.701Z,42.70
2018-10-07T19:46:57.072Z,42.50
2018-10-07T19:49:25.359Z,42.40
2018-10-07T19:51:53.657Z,42.60
2018-10-07T19:54:21.975Z,42.70
2018-10-07T19:56:50.388Z,42.60
2018-10-07T19:59:18.728Z,42.70
2018-10-07T20:01:47.182Z,42.60
2018-10-07T20:04:15.552Z,42.50
2018-10-07T20:06:44.149Z,43.00
2018-10-07T20:09:12.907Z,42.20
2018-10-07T20:11:41.337Z,42.40
2018-10-07T20:14:09.700Z,42.70
2018-10-07T20:16:39.260Z,42.70
2018-10-07T20:19:08.273Z,42.80
2018-10-07T20:21:37.516Z,42.80
2018-10-07T20:24:06.247Z,42.80
2018-10-07T20:26:34.679Z,42.80
2018-10-07T20:29:03.226Z,42.60
2018-10-07T20:31:31.709Z,42.50
2018-10-07T20:34:00.102Z,42.40
2018-10-07T20:36:28.462Z,42.30
2018-10-07T20:38:56.896Z,42.50
2018-10-07T20:41:25.543Z,42.80
2018-10-07T20:43:53.971Z,43.20
2018-10-07T20:46:22.475Z,43.60
2018-10-07T20:48:51.100Z,44.10
2018-10-07T20:51:19.665Z,44.40
2018-10-07T20:53:48.079Z,44.70
2018-10-07T20:56:16.546Z,44.60
2018-10-07T20:58:45.067Z,44.70
2018-10-07T21:01:13.566Z,44.60
2018-10-07T21:03:41.959Z,44.70
2018-10-07T21:06:10.435Z,44.60
2018-10-07T21:08:38.956Z,44.50
2018-10-07T21:11:07.667Z,44.70
2018-10-07T21:13:36.059Z,44.60
2018-10-07T21:16:04.416Z,44.50
2018-10-07T21:18:33.052Z,44.50
2018-10-07T21:21:01.427Z,44.40
2018-10-07T21:23:29.983Z,44.30
2018-10-07T21:25:58.445Z,44.30
2018-10-07T21:28:26.839Z,44.40
2018-10-07T21:30:55.193Z,44.20
2018-10-07T21:33:23.748Z,44.20
2018-10-07T21:35:52.104Z,44.30
2018-10-07T21:38:20.668Z,44.40
2018-10-07T21:40:49.183Z,44.50
2018-10-07T21:43:17.555Z,44.60
2018-10-07T21:45:45.962Z,44.60
2018-10-07T21:48:15.358Z,44.50
2018-10-07T21:50:44.219Z,44.30
2018-10-07T21:53:12.675Z,44.20
2018-10-07T21:55:40.994Z,44.30
2018-10-07T21:58:09.348Z,44.20
2018-10-07T22:00:37.845Z,44.20
2018-10-07T22:03:06.499Z,44.10
2018-10-07T22:05:34.952Z,44.30
2018-10-07T22:08:03.385Z,44.20
2018-10-07T22:10:32.143Z,44.30
2018-10-07T22:13:00.568Z,44.20
2018-10-07T22:15:29.212Z,44.30
2018-10-07T22:17:57.589Z,44.50
2018-10-07T22:20:26.068Z,44.70
2018-10-07T22:22:54.523Z,44.70
2018-10-07T22:25:22.943Z,44.70
2018-10-07T22:27:51.362Z,44.90
2018-10-07T22:30:19.867Z,44.90
2018-10-07T22:32:48.220Z,45.10
2018-10-07T22:35:16.801Z,45.00
2018-10-07T22:37:45.336Z,45.30
2018-10-07T22:40:13.872Z,45.30
2018-10-07T22:42:42.292Z,45.80
2018-10-07T22:45:10.610Z,45.90
2018-10-07T22:47:39.276Z,45.90
2018-10-07T22:50:07.738Z,46.00
2018-10-07T22:52:36.202Z,45.90
2018-10-07T22:55:04.598Z,46.30
2018-10-07T22:57:32.978Z,46.50
2018-10-07T23:00:01.361Z,46.70
2018-10-07T23:02:29.774Z,46.90
2018-10-07T23:04:58.323Z,46.70
2018-10-07T23:07:26.902Z,46.90
2018-10-07T23:09:55.396Z,46.90
2018-10-07T23:12:23.793Z,47.00
2018-10-07T23:14:52.103Z,47.30
2018-10-07T23:17:20.625Z,47.60
2018-10-07T23:19:49.180Z,47.80
2018-10-07T23:22:17.605Z,47.50
2018-10-07T23:24:45.945Z,47.60
2018-10-07T23:27:14.741Z,47.50
2018-10-07T23:29:43.153Z,47.70
2018-10-07T23:32:11.557Z,47.90
2018-10-07T23:34:40.388Z,48.10
2018-10-07T23:37:08.815Z,48.20
2018-10-07T23:39:37.296Z,48.40
2018-10-07T23:42:05.836Z,48.70
2018-10-07T23:44:34.435Z,48.90
2018-10-07T23:47:02.835Z,48.70
2018-10-07T23:49:31.245Z,48.50
2018-10-07T23:51:59.704Z,48.40
2018-10-07T23:54:28.390Z,48.20
2018-10-07T23:56:56.775Z,48.10
2018-10-07T23:59:25.333Z,48.00
